Pagrindinis puslapis
METAR-TAF:

METAR-TAF

Oro uostai :

Brønnøysund, Norvegija

platuma: 65-28N, ilguma: 012-13E, Aukštis: 0 m

Dabartinis oras

Ataskaita buvo paskelbta 31 minutes, ne 19:50 UTC
Vėjas 9 kt iš Pietvakarių
Temperatūra 13°C
Drėgmė 94%
Slėgis 1012 hPa
Matomumas 10 km arba daugiau

METAR: ENBN 021950Z AUTO 22009KT 9999NDV FEW008/// BKN012/// OVC046/// 13/12 Q1012

Laikas: 22:21 (20:21 UTC)

Prognozė

Ataskaita buvo paskelbta 3 valandos ir 21 minutes, ne 17:00 UTC
Prognozė galioja nuo 02 metu 18 UTC su 03 metu 03 UTC
Vėjas 9 kt iš Pietų/Pietvakarių
Matomumas 10 km arba daugiau
Mažai debesys ne aukštis 2000 ft
Su prošvaistėmis ne aukštis 2500 ft
Laikinai
nuo 02 metu 18 UTC su 02 metu 22 UTC
Matomumas: 4000 m
Su prošvaistėmis ne aukštis 500 ft
lietus, dulksna

TAF: ENBN 021700Z 0218/0303 21009KT 9999 FEW020 BKN025 TEMPO 0218/0222 4000 RADZ BKN005

Orai ataskaitas ir orų prognozės (METAR, TAF).

turimą stotys yra geltonos ir raudonos taškus žemėlapyje.

Perkelti pele per norėdami pamatyti stoties vardą.

Tada spustelėkite, norėdami matyti oro stebėjimo ir prognozės.

Norėdami pakeisti žemėlapį: spustelėkite ant žalios mygtukų su juodo kryžiaus žemyn,; žalią mygtuką su brūkšneliu, jei norite nutolinti; arba žalių rodyklių gretimoms žemėlapius.


METAR-TAF: